Time;durP1;ratioP1;P1;durP2;ratioP2;P2;SDS_P1;SDS_P2;PMS_P1;PMS_P2;Temp;Humidity;BMP_temperature;BMP_pressure;BME280_temperature;BME280_humidity;BME280_pressure;Samples;Min_cycle;Max_cycle;Signal;HPM_P1;HPM_P2
2022/09/30 00:01:39;;;;;;;2.60;2.40;;;22.80;64.90;;;;;;4952368;28;20439;-68
2022/09/30 00:04:12;;;;;;;2.30;2.10;;;22.80;64.90;;;;;;4942562;29;20816;-68
2022/09/30 00:06:41;;;;;;;2.30;2.17;;;22.80;64.90;;;;;;4942594;29;20449;-68
2022/09/30 00:09:12;;;;;;;2.50;2.30;;;22.80;64.90;;;;;;4951470;28;20490;-68
2022/09/30 00:11:41;;;;;;;2.03;1.90;;;22.80;64.90;;;;;;4944128;28;20463;-68
2022/09/30 00:14:14;;;;;;;2.13;2.03;;;22.80;64.90;;;;;;4943814;28;20466;-68
2022/09/30 00:16:42;;;;;;;2.10;2.00;;;22.80;64.90;;;;;;4938908;29;20460;-68
2022/09/30 00:19:11;;;;;;;2.07;1.97;;;22.80;64.90;;;;;;4943588;29;20487;-68
2022/09/30 00:21:40;;;;;;;2.10;2.00;;;22.80;64.90;;;;;;4946422;28;20465;-68
2022/09/30 00:24:08;;;;;;;2.20;2.10;;;22.80;64.90;;;;;;4950304;28;20474;-68
2022/09/30 00:26:37;;;;;;;2.40;2.20;;;22.80;64.90;;;;;;4948529;28;20448;-68
2022/09/30 00:29:06;;;;;;;2.10;2.00;;;22.80;64.80;;;;;;4954204;28;20933;-68
2022/09/30 00:31:36;;;;;;;2.30;2.10;;;22.80;64.80;;;;;;4948229;28;21007;-69
2022/09/30 00:34:07;;;;;;;2.60;2.40;;;22.80;64.80;;;;;;4952742;29;20447;-68
2022/09/30 00:36:39;;;;;;;2.67;2.20;;;22.80;64.90;;;;;;4943956;29;20447;-68
2022/09/30 00:39:09;;;;;;;2.37;2.17;;;22.80;64.80;;;;;;4946010;29;20542;-68
2022/09/30 00:41:39;;;;;;;1.97;1.87;;;22.80;64.80;;;;;;4951683;29;20443;-68
2022/09/30 00:44:56;;;;;;;2.20;1.97;;;22.80;64.80;;;;;;4952735;28;20477;-68
2022/09/30 00:47:54;;;;;;;2.47;2.37;;;22.80;64.90;;;;;;4948974;29;20463;-68
2022/09/30 00:50:41;;;;;;;2.07;1.97;;;22.80;64.90;;;;;;4937972;29;20474;-68
2022/09/30 00:53:12;;;;;;;1.77;1.67;;;22.80;64.90;;;;;;4951675;29;20470;-68
2022/09/30 00:55:54;;;;;;;2.37;2.17;;;22.80;64.80;;;;;;4942668;28;20448;-68
2022/09/30 00:58:29;;;;;;;2.30;2.10;;;22.80;64.90;;;;;;4934686;29;20431;-68
2022/09/30 01:01:00;;;;;;;2.30;2.17;;;22.80;64.80;;;;;;4934695;29;20436;-68
2022/09/30 01:03:30;;;;;;;3.07;2.87;;;22.80;64.80;;;;;;4936216;29;20514;-68
2022/09/30 01:05:59;;;;;;;2.00;1.90;;;22.80;64.80;;;;;;4942198;28;20475;-67
2022/09/30 01:08:28;;;;;;;1.90;1.80;;;22.80;64.80;;;;;;4950978;29;20459;-68
2022/09/30 01:10:56;;;;;;;2.00;1.90;;;22.80;64.80;;;;;;4953995;28;20454;-68
2022/09/30 01:13:31;;;;;;;2.07;1.97;;;22.80;64.80;;;;;;4945898;28;20792;-68
2022/09/30 01:16:34;;;;;;;2.17;2.07;;;22.80;64.80;;;;;;4938235;29;20459;-68
2022/09/30 01:19:26;;;;;;;2.03;1.93;;;22.80;64.80;;;;;;4938275;29;20464;-68
2022/09/30 01:22:18;;;;;;;2.13;1.73;;;22.80;64.80;;;;;;4952117;29;20458;-70
2022/09/30 01:25:24;;;;;;;2.40;2.20;;;22.80;64.80;;;;;;4956198;28;20481;-68
2022/09/30 01:28:17;;;;;;;1.80;1.70;;;22.80;64.80;;;;;;4943286;28;20444;-68
2022/09/30 01:31:09;;;;;;;1.87;1.77;;;22.80;64.80;;;;;;4938246;29;20428;-68
2022/09/30 01:33:46;;;;;;;1.63;1.53;;;22.80;64.80;;;;;;4946162;29;20854;-67
2022/09/30 01:36:34;;;;;;;2.23;2.13;;;22.70;64.80;;;;;;4956672;28;20437;-68
2022/09/30 01:39:12;;;;;;;1.80;1.70;;;22.80;64.80;;;;;;4956431;28;20438;-67
2022/09/30 01:41:51;;;;;;;2.10;1.90;;;22.80;64.80;;;;;;4956741;28;20442;-68
2022/09/30 01:44:29;;;;;;;1.97;1.87;;;22.70;64.80;;;;;;4939199;28;20439;-68
2022/09/30 01:47:01;;;;;;;2.13;1.97;;;22.80;64.70;;;;;;4939889;29;20838;-68
2022/09/30 01:49:33;;;;;;;2.00;1.90;;;22.80;64.80;;;;;;4953961;28;20457;-68
2022/09/30 01:52:07;;;;;;;1.73;1.63;;;22.70;64.70;;;;;;4956903;29;20436;-68
2022/09/30 01:54:42;;;;;;;1.80;1.70;;;22.70;64.70;;;;;;4956353;28;20443;-68
2022/09/30 01:57:16;;;;;;;1.90;1.80;;;22.70;64.70;;;;;;4956549;29;20505;-68
2022/09/30 01:59:50;;;;;;;2.07;1.47;;;22.70;64.70;;;;;;4957067;28;20457;-68
2022/09/30 02:02:27;;;;;;;2.10;1.90;;;22.70;64.70;;;;;;4938368;29;20451;-68
2022/09/30 02:04:59;;;;;;;2.00;1.90;;;22.70;64.70;;;;;;4939097;29;20479;-69
2022/09/30 02:07:33;;;;;;;2.10;1.90;;;22.70;64.70;;;;;;4942942;29;20455;-68
2022/09/30 02:10:08;;;;;;;1.70;1.60;;;22.70;64.70;;;;;;4950414;29;20455;-68
2022/09/30 02:12:45;;;;;;;1.93;1.83;;;22.70;64.70;;;;;;4949291;29;20853;-68
2022/09/30 02:15:17;;;;;;;2.27;2.07;;;22.70;64.70;;;;;;4956567;28;20447;-68
2022/09/30 02:17:51;;;;;;;1.93;1.83;;;22.70;64.70;;;;;;4956145;28;20450;-67
2022/09/30 02:20:24;;;;;;;2.00;1.90;;;22.70;64.70;;;;;;4952344;28;20481;-69
2022/09/30 02:22:57;;;;;;;2.10;2.00;;;22.70;64.70;;;;;;4935613;29;20466;-68
2022/09/30 02:25:29;;;;;;;1.93;1.83;;;22.70;64.70;;;;;;4952520;29;20478;-68
2022/09/30 02:28:02;;;;;;;2.03;1.93;;;22.70;64.70;;;;;;4950354;28;20474;-69
2022/09/30 02:30:31;;;;;;;1.80;1.70;;;22.70;64.70;;;;;;4953361;28;20458;-68
2022/09/30 02:33:04;;;;;;;1.70;1.60;;;22.70;64.60;;;;;;4952119;29;20447;-68
2022/09/30 02:35:36;;;;;;;1.50;1.40;;;22.70;64.70;;;;;;4946551;28;20466;-68
2022/09/30 02:38:10;;;;;;;1.73;1.63;;;22.70;64.60;;;;;;4939190;29;21290;-67
2022/09/30 02:40:42;;;;;;;1.70;1.60;;;22.70;64.60;;;;;;4940504;29;20465;-68
2022/09/30 02:43:11;;;;;;;1.70;1.60;;;22.70;64.60;;;;;;4952433;29;20768;-68
2022/09/30 02:45:47;;;;;;;1.87;1.77;;;22.70;64.60;;;;;;4950987;29;20869;-68
2022/09/30 02:48:28;;;;;;;1.83;1.73;;;22.70;64.60;;;;;;4955002;29;20955;-68
2022/09/30 02:51:03;;;;;;;2.17;2.07;;;22.70;64.60;;;;;;4937656;28;20464;-68
2022/09/30 02:53:35;;;;;;;1.77;1.67;;;22.70;64.60;;;;;;4936221;29;20429;-68
2022/09/30 02:56:17;;;;;;;1.90;1.70;;;22.70;64.60;;;;;;4952769;28;20462;-68
2022/09/30 02:58:46;;;;;;;1.57;1.47;;;22.70;64.60;;;;;;4955377;29;20446;-68
2022/09/30 03:01:17;;;;;;;1.50;1.40;;;22.70;64.60;;;;;;4938135;29;20470;-68
2022/09/30 03:03:50;;;;;;;1.43;1.33;;;22.70;64.60;;;;;;4937429;29;20999;-68
2022/09/30 03:06:19;;;;;;;1.47;1.37;;;22.70;64.60;;;;;;4952897;28;20483;-68
2022/09/30 03:08:47;;;;;;;1.77;1.67;;;22.70;64.60;;;;;;4948792;29;20474;-68
2022/09/30 03:11:18;;;;;;;1.47;1.37;;;22.70;64.60;;;;;;4935578;29;20428;-68
2022/09/30 03:14:24;;;;;;;1.73;1.63;;;22.60;64.60;;;;;;4936310;29;20771;-68
2022/09/30 03:17:18;;;;;;;1.43;1.40;;;22.60;64.60;;;;;;4948943;29;20466;-68
2022/09/30 03:20:07;;;;;;;1.67;1.57;;;22.60;64.60;;;;;;4954551;28;20475;-68
2022/09/30 03:22:57;;;;;;;1.83;1.57;;;22.60;64.60;;;;;;4950934;28;20479;-68
2022/09/30 03:25:37;;;;;;;1.50;1.40;;;22.60;64.60;;;;;;4938151;29;20953;-68
2022/09/30 03:28:16;;;;;;;1.60;1.50;;;22.60;64.50;;;;;;4935935;29;20445;-68
2022/09/30 03:30:51;;;;;;;1.80;1.47;;;22.60;64.50;;;;;;4935851;29;20424;-67
2022/09/30 03:33:25;;;;;;;1.20;1.20;;;22.60;64.50;;;;;;4935619;29;20456;-68
2022/09/30 03:36:00;;;;;;;1.20;1.20;;;22.60;64.50;;;;;;4935983;29;20906;-68
2022/09/30 03:38:41;;;;;;;1.60;1.50;;;22.60;64.50;;;;;;4954884;28;20446;-68
2022/09/30 03:41:17;;;;;;;1.10;1.10;;;22.60;64.50;;;;;;4954648;29;20449;-68
2022/09/30 03:43:50;;;;;;;1.20;1.13;;;22.60;64.50;;;;;;4941797;28;20793;-68
2022/09/30 03:46:24;;;;;;;1.17;1.07;;;22.60;64.40;;;;;;4935791;29;20479;-68
2022/09/30 03:48:55;;;;;;;1.50;1.40;;;22.60;64.50;;;;;;4944224;29;21002;-68
2022/09/30 03:51:25;;;;;;;1.30;1.30;;;22.60;64.40;;;;;;4946694;29;20469;-68
2022/09/30 03:53:54;;;;;;;1.60;1.50;;;22.60;64.40;;;;;;4935461;29;20436;-68
2022/09/30 03:56:26;;;;;;;1.80;1.70;;;22.60;64.50;;;;;;4934989;29;20931;-68
2022/09/30 03:58:55;;;;;;;1.83;1.73;;;22.60;64.50;;;;;;4940724;29;20435;-68
2022/09/30 04:01:24;;;;;;;1.60;1.50;;;22.60;64.40;;;;;;4954920;28;20442;-68
2022/09/30 04:03:53;;;;;;;1.30;1.00;;;22.60;64.50;;;;;;4952870;28;20483;-68
2022/09/30 04:06:24;;;;;;;1.60;1.50;;;22.60;64.40;;;;;;4950564;29;20478;-68
2022/09/30 04:08:53;;;;;;;1.53;1.10;;;22.60;64.40;;;;;;4936691;29;20466;-67
2022/09/30 04:11:22;;;;;;;1.83;1.40;;;22.60;64.40;;;;;;4953799;29;20460;-67
2022/09/30 04:13:50;;;;;;;1.30;1.20;;;22.60;64.40;;;;;;4954101;29;20438;-68
2022/09/30 04:16:18;;;;;;;1.40;1.30;;;22.60;64.30;;;;;;4950085;28;20832;-67
2022/09/30 04:18:46;;;;;;;1.27;1.27;;;22.60;64.30;;;;;;4951801;28;21009;-67
2022/09/30 04:21:15;;;;;;;1.17;1.17;;;22.60;64.30;;;;;;4946050;28;20455;-68
2022/09/30 04:23:43;;;;;;;1.40;1.30;;;22.60;64.40;;;;;;4951947;29;20948;-67
2022/09/30 04:26:15;;;;;;;1.60;1.50;;;22.60;64.40;;;;;;4950088;29;20478;-67
2022/09/30 04:28:44;;;;;;;1.10;1.10;;;22.60;64.40;;;;;;4949682;29;20469;-67
2022/09/30 04:31:16;;;;;;;1.13;1.13;;;22.60;64.40;;;;;;4950852;28;20456;-69
2022/09/30 04:33:45;;;;;;;1.73;1.63;;;22.60;64.40;;;;;;4952290;29;20537;-67
2022/09/30 04:36:15;;;;;;;1.33;1.20;;;22.60;64.50;;;;;;4950983;28;20470;-68
2022/09/30 04:38:43;;;;;;;1.10;1.10;;;22.60;64.60;;;;;;4950423;28;20509;-68
2022/09/30 04:41:16;;;;;;;1.23;1.00;;;22.60;64.70;;;;;;4947454;29;20465;-68
2022/09/30 04:43:45;;;;;;;1.13;1.13;;;22.60;64.70;;;;;;4947620;29;20933;-67
2022/09/30 04:46:14;;;;;;;1.13;1.10;;;22.60;64.70;;;;;;4944465;28;20480;-67
2022/09/30 04:48:44;;;;;;;2.50;2.40;;;22.60;64.80;;;;;;4950048;28;20460;-67
2022/09/30 04:51:12;;;;;;;2.80;2.60;;;22.60;64.50;;;;;;4955414;28;20459;-67
2022/09/30 04:53:41;;;;;;;3.23;2.93;;;22.50;64.20;;;;;;4952673;28;20532;-67
2022/09/30 04:56:10;;;;;;;4.20;3.80;;;22.50;64.00;;;;;;4950501;28;20807;-67
2022/09/30 04:58:40;;;;;;;4.90;3.37;;;22.40;63.70;;;;;;4953123;29;20458;-68
2022/09/30 05:01:10;;;;;;;3.90;3.53;;;22.40;63.40;;;;;;4948700;29;20470;-67
2022/09/30 05:03:39;;;;;;;4.80;2.97;;;22.30;63.50;;;;;;4953360;28;21012;-68
2022/09/30 05:06:08;;;;;;;4.10;3.23;;;22.30;63.60;;;;;;4953489;29;20474;-68
2022/09/30 05:08:36;;;;;;;3.37;3.07;;;22.20;63.50;;;;;;4951994;29;20450;-68
2022/09/30 05:11:10;;;;;;;4.00;3.70;;;22.20;63.50;;;;;;4949748;29;21244;-67
2022/09/30 05:13:41;;;;;;;4.50;4.20;;;22.20;63.30;;;;;;4955102;29;20548;-67
2022/09/30 05:16:10;;;;;;;3.20;2.90;;;22.20;63.50;;;;;;4948788;29;20960;-67
2022/09/30 05:18:40;;;;;;;3.83;3.53;;;22.10;63.50;;;;;;4951320;28;20486;-67
2022/09/30 05:21:10;;;;;;;6.00;4.13;;;22.10;63.60;;;;;;4949535;28;20461;-69
2022/09/30 05:23:38;;;;;;;4.00;3.60;;;22.10;63.60;;;;;;4953483;29;20447;-68
2022/09/30 05:26:07;;;;;;;3.40;3.10;;;22.10;63.60;;;;;;4947864;29;20475;-68
2022/09/30 05:28:41;;;;;;;1.67;1.47;;;22.10;63.80;;;;;;4948824;29;20526;-67
2022/09/30 05:31:10;;;;;;;2.83;2.63;;;22.20;64.40;;;;;;4947252;29;20454;-67
2022/09/30 05:33:40;;;;;;;4.03;3.63;;;22.20;64.00;;;;;;4952054;29;20468;-68
2022/09/30 05:36:12;;;;;;;5.50;2.80;;;22.20;63.50;;;;;;4950586;29;20482;-67
2022/09/30 05:38:40;;;;;;;3.73;3.07;;;22.10;63.00;;;;;;4948714;28;20531;-68
2022/09/30 05:41:10;;;;;;;3.53;3.30;;;22.10;63.10;;;;;;4953899;29;20455;-68
2022/09/30 05:43:41;;;;;;;3.80;3.50;;;22.10;63.30;;;;;;4953824;29;21454;-68
2022/09/30 05:46:09;;;;;;;2.40;2.10;;;22.00;63.30;;;;;;4951925;29;20477;-68
2022/09/30 05:48:37;;;;;;;2.17;2.00;;;22.10;63.70;;;;;;4951452;29;21008;-68
2022/09/30 05:51:06;;;;;;;2.83;1.63;;;22.10;63.70;;;;;;4948840;29;20466;-68
2022/09/30 05:53:37;;;;;;;2.87;2.00;;;22.20;63.60;;;;;;4951500;28;20925;-68
2022/09/30 05:56:06;;;;;;;2.10;1.90;;;22.20;63.50;;;;;;4954490;28;20538;-68
2022/09/30 05:58:34;;;;;;;1.87;1.67;;;22.20;63.40;;;;;;4954143;28;20454;-67
2022/09/30 06:01:07;;;;;;;6.20;2.10;;;22.20;63.40;;;;;;4950982;28;20482;-67
2022/09/30 06:03:41;;;;;;;2.33;2.13;;;22.30;63.30;;;;;;4953246;29;20495;-67
2022/09/30 06:06:09;;;;;;;2.30;1.70;;;22.30;63.30;;;;;;4952271;28;21029;-68
2022/09/30 06:08:37;;;;;;;1.90;1.80;;;22.30;63.30;;;;;;4950292;28;20476;-68
2022/09/30 06:11:10;;;;;;;2.97;1.90;;;22.30;63.40;;;;;;4950542;29;20474;-68
2022/09/30 06:13:39;;;;;;;1.77;1.67;;;22.30;63.40;;;;;;4950448;29;20933;-67
2022/09/30 06:16:10;;;;;;;2.90;1.57;;;22.30;63.50;;;;;;4950792;28;20466;-68
2022/09/30 06:18:40;;;;;;;1.67;1.37;;;22.40;63.50;;;;;;4950997;28;20841;-68
2022/09/30 06:21:10;;;;;;;3.63;2.00;;;22.40;63.60;;;;;;4949718;29;20462;-68
2022/09/30 06:23:39;;;;;;;1.50;1.30;;;22.40;63.50;;;;;;4952504;28;20940;-68
2022/09/30 06:26:10;;;;;;;3.07;1.50;;;22.40;63.40;;;;;;4943542;28;20470;-68
2022/09/30 06:28:39;;;;;;;1.40;1.30;;;22.40;63.70;;;;;;4951274;28;21043;-68
2022/09/30 06:31:09;;;;;;;2.07;1.47;;;22.40;63.70;;;;;;4949031;29;20938;-68
2022/09/30 06:33:37;;;;;;;2.60;1.83;;;22.50;63.80;;;;;;4950934;29;21101;-69
2022/09/30 06:36:06;;;;;;;2.63;2.03;;;22.50;63.80;;;;;;4952297;28;20927;-69
2022/09/30 06:38:35;;;;;;;1.87;1.77;;;22.50;63.90;;;;;;4951172;29;20450;-69
2022/09/30 06:41:04;;;;;;;1.57;1.40;;;22.50;64.00;;;;;;4953548;28;20504;-70
2022/09/30 06:43:32;;;;;;;1.87;1.67;;;22.50;64.00;;;;;;4950354;29;20449;-69
2022/09/30 06:46:23;;;;;;;2.00;1.73;;;22.60;64.00;;;;;;4954467;28;20486;-70
2022/09/30 06:48:58;;;;;;;1.53;1.43;;;22.60;64.00;;;;;;4953965;28;20506;-70
2022/09/30 06:51:46;;;;;;;1.70;1.60;;;22.60;64.00;;;;;;4949551;29;20474;-69
2022/09/30 06:54:14;;;;;;;1.80;1.70;;;22.70;64.00;;;;;;4951218;29;20449;-69
2022/09/30 06:56:42;;;;;;;1.20;1.20;;;22.70;64.00;;;;;;4947736;29;21344;-69
2022/09/30 06:59:11;;;;;;;1.40;1.30;;;22.70;64.00;;;;;;4951833;28;20451;-69
2022/09/30 07:01:43;;;;;;;1.33;1.23;;;22.70;64.00;;;;;;4948008;29;20459;-69
2022/09/30 07:04:11;;;;;;;1.47;1.40;;;22.70;64.00;;;;;;4951029;29;20493;-69
2022/09/30 07:06:40;;;;;;;1.37;1.27;;;22.70;64.00;;;;;;4952848;28;20450;-69
2022/09/30 07:09:10;;;;;;;2.57;1.53;;;22.70;64.00;;;;;;4951298;29;20502;-69
2022/09/30 07:11:38;;;;;;;1.50;1.40;;;22.70;64.00;;;;;;4952543;28;20454;-70
2022/09/30 07:14:07;;;;;;;2.93;1.30;;;22.80;64.00;;;;;;4951499;29;21353;-69
2022/09/30 07:16:36;;;;;;;2.00;1.90;;;22.80;64.00;;;;;;4944979;28;20455;-69
2022/09/30 07:19:09;;;;;;;1.70;1.60;;;22.80;64.00;;;;;;4949999;29;20493;-68
2022/09/30 07:21:37;;;;;;;2.60;1.90;;;22.80;64.00;;;;;;4951548;29;20448;-69
2022/09/30 07:24:05;;;;;;;2.00;1.30;;;22.80;63.90;;;;;;4953061;28;20439;-69
2022/09/30 07:26:33;;;;;;;1.67;1.57;;;22.80;63.90;;;;;;4947796;29;20938;-69
2022/09/30 07:29:01;;;;;;;1.40;1.30;;;22.80;64.00;;;;;;4951637;28;20974;-68
2022/09/30 07:31:29;;;;;;;1.50;1.40;;;22.90;63.90;;;;;;4950143;28;20451;-70
2022/09/30 07:34:01;;;;;;;1.30;1.30;;;22.90;63.90;;;;;;4951151;28;20455;-69
2022/09/30 07:36:30;;;;;;;1.30;1.30;;;22.90;63.90;;;;;;4949836;28;20446;-69
2022/09/30 07:39:05;;;;;;;2.67;1.33;;;22.90;63.90;;;;;;4951831;28;20666;-69
2022/09/30 07:41:36;;;;;;;1.43;1.33;;;22.90;63.90;;;;;;4949484;29;20486;-68
2022/09/30 07:44:05;;;;;;;1.33;1.23;;;22.90;63.90;;;;;;4940739;29;20517;-69
2022/09/30 07:46:37;;;;;;;1.80;1.70;;;22.90;63.90;;;;;;4950971;29;20459;-69
2022/09/30 07:49:08;;;;;;;1.47;1.37;;;22.90;63.90;;;;;;4951181;29;20471;-69
2022/09/30 07:51:39;;;;;;;1.60;1.40;;;22.90;63.90;;;;;;4951964;28;20471;-69
2022/09/30 07:54:10;;;;;;;1.47;1.37;;;22.90;63.90;;;;;;4948820;29;20969;-69
2022/09/30 07:56:40;;;;;;;1.10;1.00;;;22.90;63.90;;;;;;4949940;29;20956;-69
2022/09/30 07:59:30;;;;;;;1.27;1.17;;;22.90;63.90;;;;;;4953797;29;20466;-69
2022/09/30 08:01:58;;;;;;;1.30;1.20;;;22.90;63.90;;;;;;4952306;28;20533;-69
2022/09/30 08:04:27;;;;;;;1.50;1.40;;;22.90;63.90;;;;;;4949796;28;20477;-69
2022/09/30 08:06:59;;;;;;;1.43;1.33;;;22.90;63.90;;;;;;4951899;28;20462;-69
2022/09/30 08:09:29;;;;;;;1.00;1.00;;;22.90;63.90;;;;;;4945845;28;20479;-69
2022/09/30 08:11:58;;;;;;;1.23;1.13;;;22.90;63.90;;;;;;4957318;28;20481;-70
2022/09/30 08:14:28;;;;;;;1.30;1.20;;;22.90;63.90;;;;;;4952892;28;20470;-69
2022/09/30 08:16:57;;;;;;;1.23;1.23;;;23.00;63.90;;;;;;4950792;29;21115;-69
2022/09/30 08:19:26;;;;;;;1.30;1.20;;;23.00;63.80;;;;;;4951423;28;20534;-69
2022/09/30 08:21:56;;;;;;;1.17;1.17;;;23.00;63.80;;;;;;4945995;28;20448;-69
2022/09/30 08:24:25;;;;;;;1.40;1.30;;;23.00;63.90;;;;;;4948358;29;20479;-68
2022/09/30 08:26:55;;;;;;;1.20;1.10;;;23.00;63.90;;;;;;4953979;28;20459;-69
2022/09/30 08:29:23;;;;;;;1.73;1.20;;;23.00;63.80;;;;;;4957282;28;20474;-69
2022/09/30 08:32:11;;;;;;;1.00;1.00;;;23.00;63.80;;;;;;4953397;28;20462;-69
2022/09/30 08:34:39;;;;;;;1.27;1.27;;;23.00;63.80;;;;;;4951439;29;20453;-70
2022/09/30 08:37:09;;;;;;;1.00;1.00;;;23.00;63.80;;;;;;4952270;28;20476;-69
2022/09/30 08:39:38;;;;;;;1.17;1.17;;;23.00;63.80;;;;;;4955089;28;20463;-69
2022/09/30 08:42:20;;;;;;;1.30;1.30;;;23.00;63.60;;;;;;4950665;29;20473;-70
2022/09/30 08:45:17;;;;;;;2.10;1.30;;;23.00;63.90;;;;;;4956396;28;21017;-70
2022/09/30 08:47:53;;;;;;;1.10;1.00;;;23.00;63.90;;;;;;4951708;29;20451;-69
2022/09/30 08:50:28;;;;;;;1.40;1.30;;;23.10;63.90;;;;;;4952097;28;20462;-69
2022/09/30 08:53:01;;;;;;;1.60;1.50;;;23.10;63.90;;;;;;4956045;29;20458;-69
2022/09/30 08:55:38;;;;;;;2.20;1.07;;;23.10;63.90;;;;;;4950028;28;20462;-69
2022/09/30 08:58:11;;;;;;;1.27;1.17;;;23.10;64.00;;;;;;4948863;28;20505;-69
2022/09/30 09:00:41;;;;;;;1.57;1.10;;;23.10;64.00;;;;;;4956468;28;20469;-68
2022/09/30 09:03:12;;;;;;;1.03;1.00;;;23.10;64.00;;;;;;4955240;28;20570;-69
2022/09/30 09:05:54;;;;;;;1.50;1.30;;;23.10;64.00;;;;;;4955317;28;20477;-68
2022/09/30 09:08:33;;;;;;;1.00;1.00;;;23.10;64.00;;;;;;4954589;28;20520;-68
2022/09/30 09:11:07;;;;;;;2.00;1.40;;;23.10;64.00;;;;;;4945660;28;20453;-68
2022/09/30 09:13:49;;;;;;;2.10;1.50;;;23.10;64.00;;;;;;4944553;29;20447;-68
2022/09/30 09:16:25;;;;;;;1.63;1.53;;;23.10;64.00;;;;;;4954001;29;20452;-69
2022/09/30 09:19:01;;;;;;;1.13;1.13;;;23.20;64.00;;;;;;4956199;28;21134;-68
2022/09/30 09:21:38;;;;;;;1.53;1.40;;;23.20;63.90;;;;;;4954161;29;20450;-68
2022/09/30 09:24:21;;;;;;;1.60;1.50;;;23.20;63.90;;;;;;4942360;29;20461;-69
2022/09/30 09:26:50;;;;;;;1.57;1.27;;;23.20;64.00;;;;;;4950330;28;20457;-68
2022/09/30 09:29:43;;;;;;;1.40;1.20;;;23.20;63.90;;;;;;4945861;29;20475;-68
2022/09/30 09:32:14;;;;;;;1.77;1.40;;;23.20;64.00;;;;;;4944997;29;20489;-74
2022/09/30 09:34:43;;;;;;;2.80;1.30;;;23.20;63.90;;;;;;4951188;28;20460;-69
2022/09/30 09:37:20;;;;;;;1.63;1.50;;;23.20;63.90;;;;;;4955358;28;20439;-68
2022/09/30 09:40:03;;;;;;;1.63;1.00;;;23.20;63.90;;;;;;4951717;29;20531;-70
2022/09/30 09:42:57;;;;;;;1.57;1.47;;;23.20;63.90;;;;;;4954929;28;20450;-68
2022/09/30 09:45:32;;;;;;;1.50;1.40;;;23.20;63.80;;;;;;4948954;28;20475;-69
2022/09/30 09:48:00;;;;;;;1.50;1.40;;;23.30;63.70;;;;;;4951780;29;20955;-69
2022/09/30 09:50:40;;;;;;;1.53;1.43;;;23.30;63.70;;;;;;4948494;28;20487;-69
2022/09/30 09:53:44;;;;;;;2.00;1.50;;;23.30;63.70;;;;;;4953327;29;20450;-71
2022/09/30 09:56:18;;;;;;;1.77;1.40;;;23.30;63.70;;;;;;4944084;28;20470;-70
2022/09/30 09:59:12;;;;;;;1.30;1.30;;;23.30;63.50;;;;;;4947885;28;20452;-69
2022/09/30 10:01:42;;;;;;;1.50;1.40;;;23.30;63.60;;;;;;4951783;29;20969;-70
2022/09/30 10:04:17;;;;;;;1.90;1.50;;;23.30;63.50;;;;;;4942006;29;20965;-71
2022/09/30 10:06:52;;;;;;;1.10;1.10;;;23.30;63.50;;;;;;4944646;29;20451;-69
2022/09/30 10:09:32;;;;;;;1.87;1.67;;;23.30;63.60;;;;;;4954879;29;20478;-69
2022/09/30 10:12:30;;;;;;;1.27;1.17;;;23.30;63.50;;;;;;4950999;29;20469;-70
2022/09/30 10:15:04;;;;;;;1.47;1.37;;;23.30;63.50;;;;;;4953141;28;20450;-65
2022/09/30 10:17:35;;;;;;;1.30;1.20;;;23.30;63.50;;;;;;4951217;29;20470;-66
2022/09/30 10:20:07;;;;;;;2.00;1.80;;;23.30;63.50;;;;;;4954199;28;20479;-69
2022/09/30 10:22:36;;;;;;;1.37;1.27;;;23.30;63.40;;;;;;4952694;28;20448;-69
2022/09/30 10:25:23;;;;;;;1.43;1.33;;;23.30;63.50;;;;;;4948668;29;20451;-74
2022/09/30 10:27:55;;;;;;;1.53;1.43;;;23.30;63.40;;;;;;4944991;29;20487;-69
2022/09/30 10:30:46;;;;;;;1.20;1.10;;;23.30;63.40;;;;;;4949523;29;21005;-70
2022/09/30 10:33:20;;;;;;;2.53;1.30;;;23.30;63.40;;;;;;4940227;28;20471;-70
2022/09/30 10:35:56;;;;;;;5.23;1.67;;;23.30;63.40;;;;;;4953241;28;20549;-68
2022/09/30 10:38:28;;;;;;;1.43;1.37;;;23.30;63.40;;;;;;4949736;28;20442;-69
2022/09/30 10:40:57;;;;;;;1.87;1.50;;;23.30;63.40;;;;;;4947626;29;20447;-69
2022/09/30 10:43:30;;;;;;;1.23;1.23;;;23.30;63.30;;;;;;4946790;28;20450;-68
2022/09/30 10:46:02;;;;;;;1.20;1.20;;;23.30;63.40;;;;;;4952430;28;20453;-69
2022/09/30 10:48:53;;;;;;;1.93;1.30;;;23.40;63.30;;;;;;4954104;28;20456;-67
2022/09/30 10:51:32;;;;;;;1.70;1.53;;;23.40;63.20;;;;;;4947001;29;20477;-67
2022/09/30 10:54:00;;;;;;;0.93;0.93;;;23.40;63.30;;;;;;4953582;28;20463;-66
2022/09/30 10:56:36;;;;;;;1.20;1.10;;;23.40;63.20;;;;;;4953855;28;21009;-67
2022/09/30 10:59:15;;;;;;;1.40;1.40;;;23.40;63.30;;;;;;4953880;29;20762;-67
2022/09/30 11:01:48;;;;;;;1.43;1.33;;;23.40;63.30;;;;;;4947501;28;20458;-66
2022/09/30 11:04:27;;;;;;;1.23;1.23;;;23.40;63.30;;;;;;4950986;28;20483;-66
2022/09/30 11:07:01;;;;;;;1.20;1.20;;;23.40;63.30;;;;;;4950439;29;20457;-68
2022/09/30 11:09:36;;;;;;;1.30;1.30;;;23.40;63.30;;;;;;4950656;28;20870;-67
2022/09/30 11:12:14;;;;;;;1.20;1.10;;;23.40;63.20;;;;;;4952198;29;20451;-66
2022/09/30 11:14:51;;;;;;;1.50;1.40;;;23.40;63.20;;;;;;4949499;29;20461;-66
2022/09/30 11:17:27;;;;;;;2.67;1.10;;;23.40;63.20;;;;;;4951930;29;20462;-67
2022/09/30 11:20:08;;;;;;;2.83;1.07;;;23.40;63.30;;;;;;4951478;28;20459;-67
2022/09/30 11:22:43;;;;;;;2.30;1.37;;;23.40;63.30;;;;;;4946713;29;20451;-66
2022/09/30 11:25:14;;;;;;;1.50;1.40;;;23.40;63.30;;;;;;4947347;28;20450;-68
2022/09/30 11:28:08;;;;;;;1.03;0.97;;;23.40;63.20;;;;;;4949610;29;20456;-67
2022/09/30 11:30:46;;;;;;;1.10;1.10;;;23.40;63.20;;;;;;4948665;28;20513;-66
2022/09/30 11:33:42;;;;;;;0.93;0.93;;;23.40;63.20;;;;;;4947975;29;20489;-67
2022/09/30 11:36:22;;;;;;;1.23;1.23;;;23.40;63.10;;;;;;4949214;29;20499;-67
2022/09/30 11:39:02;;;;;;;1.37;1.37;;;23.40;63.10;;;;;;4947976;28;20466;-68
2022/09/30 11:41:34;;;;;;;1.10;1.10;;;23.40;63.20;;;;;;4948753;29;20463;-67
2022/09/30 11:44:17;;;;;;;1.60;1.50;;;23.40;63.10;;;;;;4945960;29;20443;-68
2022/09/30 11:47:11;;;;;;;1.90;1.30;;;23.40;63.10;;;;;;4943860;29;20946;-68
2022/09/30 11:50:04;;;;;;;1.60;1.50;;;23.40;63.20;;;;;;4948291;29;20462;-69
2022/09/30 11:52:41;;;;;;;1.27;1.27;;;23.40;63.10;;;;;;4948357;28;20467;-67
2022/09/30 11:55:29;;;;;;;1.60;1.50;;;23.40;63.00;;;;;;4947768;29;20558;-66
2022/09/30 11:58:03;;;;;;;1.47;1.37;;;23.40;62.90;;;;;;4952333;28;20812;-67
2022/09/30 12:00:55;;;;;;;1.43;1.20;;;23.40;62.90;;;;;;4948395;29;20477;-66
2022/09/30 12:03:29;;;;;;;1.27;1.27;;;23.40;62.90;;;;;;4950677;29;21009;-67
2022/09/30 12:06:01;;;;;;;2.37;0.87;;;23.40;62.90;;;;;;4949033;29;20451;-66
2022/09/30 12:08:33;;;;;;;1.30;1.20;;;23.40;62.80;;;;;;4948507;28;20455;-67
2022/09/30 12:11:08;;;;;;;1.53;1.43;;;23.30;62.80;;;;;;4947057;28;20498;-67
2022/09/30 12:13:42;;;;;;;1.33;1.23;;;23.30;62.80;;;;;;4949794;29;20456;-68
2022/09/30 12:16:14;;;;;;;1.07;1.07;;;23.30;62.80;;;;;;4953047;28;20442;-67
2022/09/30 12:18:48;;;;;;;1.73;1.63;;;23.30;62.80;;;;;;4952183;28;20483;-67
2022/09/30 12:21:20;;;;;;;1.40;1.30;;;23.30;62.90;;;;;;4950920;29;20447;-67
2022/09/30 12:23:54;;;;;;;1.90;1.37;;;23.30;62.90;;;;;;4947946;29;20466;-71
2022/09/30 12:26:22;;;;;;;2.03;1.43;;;23.30;63.10;;;;;;4949346;29;20477;-70
2022/09/30 12:32:08;;;;;;;1.90;1.37;;;23.30;63.10;;;;;;4950941;28;20475;-70
2022/09/30 12:35:00;;;;;;;1.50;1.40;;;23.30;63.10;;;;;;4950386;29;20922;-69
2022/09/30 12:37:41;;;;;;;1.60;1.50;;;23.20;63.10;;;;;;4946827;29;20466;-69
2022/09/30 12:40:38;;;;;;;1.27;1.17;;;23.20;63.10;;;;;;4946848;29;20466;-74
2022/09/30 12:43:35;;;;;;;1.90;1.30;;;23.20;63.20;;;;;;4921497;28;20479;-69
2022/09/30 12:46:22;;;;;;;2.10;1.37;;;23.20;63.20;;;;;;4947914;29;20479;-69
2022/09/30 12:48:54;;;;;;;3.73;1.60;;;23.20;63.20;;;;;;4953856;28;20882;-69
2022/09/30 12:51:27;;;;;;;1.43;1.33;;;23.20;63.20;;;;;;4939982;28;20490;-72
2022/09/30 12:54:03;;;;;;;2.17;1.53;;;23.20;63.20;;;;;;4944879;29;20509;-69
2022/09/30 12:56:32;;;;;;;2.93;1.80;;;23.20;63.20;;;;;;4948134;28;20923;-69
2022/09/30 12:59:02;;;;;;;2.03;1.70;;;23.20;63.20;;;;;;4946115;29;20550;-70
2022/09/30 13:01:35;;;;;;;1.93;1.57;;;23.20;63.20;;;;;;4947013;28;20970;-72
2022/09/30 13:04:29;;;;;;;1.50;1.40;;;23.20;63.20;;;;;;4945782;29;20481;-68
2022/09/30 13:07:15;;;;;;;2.80;1.77;;;23.20;63.30;;;;;;4943475;28;20477;-68
2022/09/30 13:10:01;;;;;;;3.13;1.50;;;23.10;63.30;;;;;;4953370;29;20480;-68
2022/09/30 13:12:42;;;;;;;2.40;1.30;;;23.10;63.30;;;;;;4948779;29;20494;-67
2022/09/30 13:15:38;;;;;;;1.57;1.43;;;23.10;63.20;;;;;;4952425;28;20478;-69
2022/09/30 13:18:43;;;;;;;5.33;1.63;;;23.10;63.20;;;;;;4951796;28;20475;-69
2022/09/30 13:21:21;;;;;;;2.47;1.57;;;23.10;63.20;;;;;;4956413;28;20455;-68
2022/09/30 13:23:51;;;;;;;1.80;1.70;;;23.10;63.20;;;;;;4953480;29;20481;-68
2022/09/30 13:26:48;;;;;;;2.60;1.40;;;23.10;63.10;;;;;;4953880;29;20459;-68
2022/09/30 13:29:38;;;;;;;2.03;1.80;;;23.10;63.10;;;;;;4918513;28;20467;-68
2022/09/30 13:32:08;;;;;;;2.10;1.90;;;23.20;63.00;;;;;;4951569;29;20477;-68